sensor_id;sensor_type;location;lat;lon;timestamp;P1;durP1;ratioP1;P2;durP2;ratioP2
9848;SDS011;4963;51.444;6.528;2023-02-08T00:00:51;17.77;;;12.13;;
9848;SDS011;4963;51.444;6.528;2023-02-08T00:03:18;17.00;;;12.07;;
9848;SDS011;4963;51.444;6.528;2023-02-08T00:05:45;18.93;;;11.60;;
9848;SDS011;4963;51.444;6.528;2023-02-08T00:08:13;17.90;;;11.07;;
9848;SDS011;4963;51.444;6.528;2023-02-08T00:10:40;17.17;;;10.97;;
9848;SDS011;4963;51.444;6.528;2023-02-08T00:13:07;17.87;;;11.03;;
9848;SDS011;4963;51.444;6.528;2023-02-08T00:15:34;14.37;;;10.50;;
9848;SDS011;4963;51.444;6.528;2023-02-08T00:18:05;14.63;;;10.27;;
9848;SDS011;4963;51.444;6.528;2023-02-08T00:20:32;15.40;;;10.80;;
9848;SDS011;4963;51.444;6.528;2023-02-08T00:22:58;17.43;;;11.43;;
9848;SDS011;4963;51.444;6.528;2023-02-08T00:25:26;16.10;;;11.33;;
9848;SDS011;4963;51.444;6.528;2023-02-08T00:27:53;17.27;;;9.87;;
9848;SDS011;4963;51.444;6.528;2023-02-08T00:30:20;13.63;;;9.53;;
9848;SDS011;4963;51.444;6.528;2023-02-08T00:32:47;18.23;;;11.47;;
9848;SDS011;4963;51.444;6.528;2023-02-08T00:35:14;15.80;;;10.23;;
9848;SDS011;4963;51.444;6.528;2023-02-08T00:37:41;14.37;;;10.03;;
9848;SDS011;4963;51.444;6.528;2023-02-08T00:40:08;16.30;;;9.80;;
9848;SDS011;4963;51.444;6.528;2023-02-08T00:42:37;16.13;;;9.73;;
9848;SDS011;4963;51.444;6.528;2023-02-08T00:45:04;15.37;;;10.63;;
9848;SDS011;4963;51.444;6.528;2023-02-08T00:47:31;17.47;;;10.37;;
9848;SDS011;4963;51.444;6.528;2023-02-08T00:49:58;13.70;;;10.03;;
9848;SDS011;4963;51.444;6.528;2023-02-08T00:52:25;14.17;;;9.67;;
9848;SDS011;4963;51.444;6.528;2023-02-08T00:54:53;16.23;;;9.93;;
9848;SDS011;4963;51.444;6.528;2023-02-08T00:57:20;14.30;;;10.00;;
9848;SDS011;4963;51.444;6.528;2023-02-08T00:59:48;14.17;;;9.77;;
9848;SDS011;4963;51.444;6.528;2023-02-08T01:02:15;13.23;;;9.70;;
9848;SDS011;4963;51.444;6.528;2023-02-08T01:04:42;13.50;;;10.00;;
9848;SDS011;4963;51.444;6.528;2023-02-08T01:07:09;16.23;;;9.63;;
9848;SDS011;4963;51.444;6.528;2023-02-08T01:09:36;17.30;;;9.73;;
9848;SDS011;4963;51.444;6.528;2023-02-08T01:12:02;15.67;;;9.20;;
9848;SDS011;4963;51.444;6.528;2023-02-08T01:14:29;13.87;;;9.87;;
9848;SDS011;4963;51.444;6.528;2023-02-08T01:16:57;13.33;;;9.30;;
9848;SDS011;4963;51.444;6.528;2023-02-08T01:19:24;13.63;;;9.00;;
9848;SDS011;4963;51.444;6.528;2023-02-08T01:21:51;15.93;;;9.33;;
9848;SDS011;4963;51.444;6.528;2023-02-08T01:24:19;11.53;;;9.13;;
9848;SDS011;4963;51.444;6.528;2023-02-08T01:26:45;14.27;;;9.73;;
9848;SDS011;4963;51.444;6.528;2023-02-08T01:29:12;15.43;;;8.80;;
9848;SDS011;4963;51.444;6.528;2023-02-08T01:31:40;15.80;;;9.53;;
9848;SDS011;4963;51.444;6.528;2023-02-08T01:34:09;13.13;;;8.83;;
9848;SDS011;4963;51.444;6.528;2023-02-08T01:36:37;14.10;;;9.40;;
9848;SDS011;4963;51.444;6.528;2023-02-08T01:39:05;16.03;;;9.47;;
9848;SDS011;4963;51.444;6.528;2023-02-08T01:41:33;11.83;;;8.43;;
9848;SDS011;4963;51.444;6.528;2023-02-08T01:44:06;12.87;;;9.47;;
9848;SDS011;4963;51.444;6.528;2023-02-08T01:46:54;14.80;;;8.53;;
9848;SDS011;4963;51.444;6.528;2023-02-08T01:49:24;14.37;;;9.83;;
9848;SDS011;4963;51.444;6.528;2023-02-08T01:51:56;14.50;;;9.17;;
9848;SDS011;4963;51.444;6.528;2023-02-08T01:54:27;15.17;;;9.17;;
9848;SDS011;4963;51.444;6.528;2023-02-08T01:56:56;12.13;;;8.70;;
9848;SDS011;4963;51.444;6.528;2023-02-08T01:59:23;12.00;;;8.50;;
9848;SDS011;4963;51.444;6.528;2023-02-08T02:01:55;14.60;;;8.93;;
9848;SDS011;4963;51.444;6.528;2023-02-08T02:04:25;12.50;;;9.20;;
9848;SDS011;4963;51.444;6.528;2023-02-08T02:06:53;11.73;;;8.70;;
9848;SDS011;4963;51.444;6.528;2023-02-08T02:09:23;12.37;;;8.90;;
9848;SDS011;4963;51.444;6.528;2023-02-08T02:11:53;13.83;;;8.10;;
9848;SDS011;4963;51.444;6.528;2023-02-08T02:14:21;11.40;;;8.53;;
9848;SDS011;4963;51.444;6.528;2023-02-08T02:16:49;13.03;;;9.10;;
9848;SDS011;4963;51.444;6.528;2023-02-08T02:19:18;13.00;;;8.33;;
9848;SDS011;4963;51.444;6.528;2023-02-08T02:21:56;13.67;;;8.90;;
9848;SDS011;4963;51.444;6.528;2023-02-08T02:27:25;14.27;;;8.53;;
9848;SDS011;4963;51.444;6.528;2023-02-08T02:30:29;11.87;;;8.60;;
9848;SDS011;4963;51.444;6.528;2023-02-08T02:33:14;13.17;;;8.83;;
9848;SDS011;4963;51.444;6.528;2023-02-08T02:35:55;13.20;;;8.70;;
9848;SDS011;4963;51.444;6.528;2023-02-08T02:38:30;12.80;;;8.13;;
9848;SDS011;4963;51.444;6.528;2023-02-08T02:41:08;13.30;;;8.57;;
9848;SDS011;4963;51.444;6.528;2023-02-08T02:44:04;14.17;;;8.67;;
9848;SDS011;4963;51.444;6.528;2023-02-08T02:46:39;12.97;;;8.60;;
9848;SDS011;4963;51.444;6.528;2023-02-08T02:49:14;13.40;;;8.23;;
9848;SDS011;4963;51.444;6.528;2023-02-08T02:51:50;11.10;;;7.97;;
9848;SDS011;4963;51.444;6.528;2023-02-08T02:54:23;14.93;;;8.20;;
9848;SDS011;4963;51.444;6.528;2023-02-08T02:56:55;15.23;;;9.00;;
9848;SDS011;4963;51.444;6.528;2023-02-08T02:59:27;14.60;;;8.40;;
9848;SDS011;4963;51.444;6.528;2023-02-08T03:01:57;15.07;;;8.40;;
9848;SDS011;4963;51.444;6.528;2023-02-08T03:07:22;14.03;;;8.60;;
9848;SDS011;4963;51.444;6.528;2023-02-08T03:10:16;14.30;;;8.90;;
9848;SDS011;4963;51.444;6.528;2023-02-08T03:12:59;14.70;;;8.60;;
9848;SDS011;4963;51.444;6.528;2023-02-08T03:15:33;11.10;;;8.43;;
9848;SDS011;4963;51.444;6.528;2023-02-08T03:18:10;11.33;;;8.50;;
9848;SDS011;4963;51.444;6.528;2023-02-08T03:20:50;16.27;;;9.77;;
9848;SDS011;4963;51.444;6.528;2023-02-08T03:23:25;11.90;;;8.20;;
9848;SDS011;4963;51.444;6.528;2023-02-08T03:25:56;12.10;;;8.00;;
9848;SDS011;4963;51.444;6.528;2023-02-08T03:28:31;12.70;;;8.50;;
9848;SDS011;4963;51.444;6.528;2023-02-08T03:31:07;12.43;;;8.33;;
9848;SDS011;4963;51.444;6.528;2023-02-08T03:33:41;14.77;;;8.63;;
9848;SDS011;4963;51.444;6.528;2023-02-08T03:36:16;11.93;;;7.77;;
9848;SDS011;4963;51.444;6.528;2023-02-08T03:38:47;15.50;;;8.50;;
9848;SDS011;4963;51.444;6.528;2023-02-08T03:41:18;11.70;;;7.80;;
9848;SDS011;4963;51.444;6.528;2023-02-08T03:43:50;13.70;;;9.03;;
9848;SDS011;4963;51.444;6.528;2023-02-08T03:46:21;12.10;;;8.23;;
9848;SDS011;4963;51.444;6.528;2023-02-08T03:48:53;13.33;;;8.70;;
9848;SDS011;4963;51.444;6.528;2023-02-08T03:51:25;13.23;;;8.90;;
9848;SDS011;4963;51.444;6.528;2023-02-08T03:53:54;12.97;;;8.30;;
9848;SDS011;4963;51.444;6.528;2023-02-08T03:56:27;11.23;;;7.53;;
9848;SDS011;4963;51.444;6.528;2023-02-08T03:59:01;11.90;;;8.60;;
9848;SDS011;4963;51.444;6.528;2023-02-08T04:01:31;13.77;;;8.37;;
9848;SDS011;4963;51.444;6.528;2023-02-08T04:04:03;14.63;;;8.50;;
9848;SDS011;4963;51.444;6.528;2023-02-08T04:06:31;13.47;;;8.43;;
9848;SDS011;4963;51.444;6.528;2023-02-08T04:08:58;15.47;;;8.50;;
9848;SDS011;4963;51.444;6.528;2023-02-08T04:11:25;12.57;;;8.17;;
9848;SDS011;4963;51.444;6.528;2023-02-08T04:13:52;15.10;;;9.27;;
9848;SDS011;4963;51.444;6.528;2023-02-08T04:16:18;12.27;;;8.87;;
9848;SDS011;4963;51.444;6.528;2023-02-08T04:18:45;10.57;;;8.17;;
9848;SDS011;4963;51.444;6.528;2023-02-08T04:21:12;13.03;;;8.73;;
9848;SDS011;4963;51.444;6.528;2023-02-08T04:23:40;13.53;;;8.70;;
9848;SDS011;4963;51.444;6.528;2023-02-08T04:26:07;14.50;;;8.43;;
9848;SDS011;4963;51.444;6.528;2023-02-08T04:28:33;12.10;;;8.20;;
9848;SDS011;4963;51.444;6.528;2023-02-08T04:31:00;12.30;;;8.57;;
9848;SDS011;4963;51.444;6.528;2023-02-08T04:33:27;13.03;;;8.63;;
9848;SDS011;4963;51.444;6.528;2023-02-08T04:35:54;14.17;;;9.17;;
9848;SDS011;4963;51.444;6.528;2023-02-08T04:38:21;13.63;;;8.33;;
9848;SDS011;4963;51.444;6.528;2023-02-08T04:40:49;13.20;;;9.13;;
9848;SDS011;4963;51.444;6.528;2023-02-08T04:43:16;14.93;;;8.17;;
9848;SDS011;4963;51.444;6.528;2023-02-08T04:45:42;13.67;;;8.77;;
9848;SDS011;4963;51.444;6.528;2023-02-08T04:48:09;12.30;;;8.30;;
9848;SDS011;4963;51.444;6.528;2023-02-08T04:50:36;13.87;;;8.80;;
9848;SDS011;4963;51.444;6.528;2023-02-08T04:53:03;11.50;;;7.47;;
9848;SDS011;4963;51.444;6.528;2023-02-08T04:55:30;11.73;;;8.17;;
9848;SDS011;4963;51.444;6.528;2023-02-08T04:57:58;11.67;;;8.13;;
9848;SDS011;4963;51.444;6.528;2023-02-08T05:00:25;12.20;;;8.77;;
9848;SDS011;4963;51.444;6.528;2023-02-08T05:02:52;13.83;;;8.43;;
9848;SDS011;4963;51.444;6.528;2023-02-08T05:05:19;14.00;;;9.10;;
9848;SDS011;4963;51.444;6.528;2023-02-08T05:07:46;13.30;;;8.50;;
9848;SDS011;4963;51.444;6.528;2023-02-08T05:10:13;15.00;;;9.23;;
9848;SDS011;4963;51.444;6.528;2023-02-08T05:12:40;13.93;;;9.57;;
9848;SDS011;4963;51.444;6.528;2023-02-08T05:15:08;13.13;;;8.97;;
9848;SDS011;4963;51.444;6.528;2023-02-08T05:17:35;13.67;;;9.67;;
9848;SDS011;4963;51.444;6.528;2023-02-08T05:20:02;16.67;;;9.83;;
9848;SDS011;4963;51.444;6.528;2023-02-08T05:22:30;14.90;;;9.00;;
9848;SDS011;4963;51.444;6.528;2023-02-08T05:24:57;15.73;;;9.53;;
9848;SDS011;4963;51.444;6.528;2023-02-08T05:27:24;13.67;;;9.53;;
9848;SDS011;4963;51.444;6.528;2023-02-08T05:29:51;15.00;;;8.77;;
9848;SDS011;4963;51.444;6.528;2023-02-08T05:32:19;12.87;;;9.57;;
9848;SDS011;4963;51.444;6.528;2023-02-08T05:34:46;17.73;;;9.60;;
9848;SDS011;4963;51.444;6.528;2023-02-08T05:37:13;15.73;;;9.77;;
9848;SDS011;4963;51.444;6.528;2023-02-08T05:39:39;15.27;;;9.37;;
9848;SDS011;4963;51.444;6.528;2023-02-08T05:42:06;15.10;;;9.53;;
9848;SDS011;4963;51.444;6.528;2023-02-08T05:44:33;13.67;;;9.30;;
9848;SDS011;4963;51.444;6.528;2023-02-08T05:47:00;13.53;;;9.70;;
9848;SDS011;4963;51.444;6.528;2023-02-08T05:49:29;14.07;;;9.10;;
9848;SDS011;4963;51.444;6.528;2023-02-08T05:51:56;13.40;;;9.37;;
9848;SDS011;4963;51.444;6.528;2023-02-08T05:54:22;17.20;;;10.43;;
9848;SDS011;4963;51.444;6.528;2023-02-08T05:56:49;17.17;;;9.50;;
9848;SDS011;4963;51.444;6.528;2023-02-08T05:59:16;15.80;;;9.50;;
9848;SDS011;4963;51.444;6.528;2023-02-08T06:01:43;15.10;;;9.50;;
9848;SDS011;4963;51.444;6.528;2023-02-08T06:04:09;14.70;;;9.60;;
9848;SDS011;4963;51.444;6.528;2023-02-08T06:06:37;15.30;;;10.33;;
9848;SDS011;4963;51.444;6.528;2023-02-08T06:09:04;12.67;;;9.90;;
9848;SDS011;4963;51.444;6.528;2023-02-08T06:11:31;18.20;;;10.90;;
9848;SDS011;4963;51.444;6.528;2023-02-08T06:14:00;18.13;;;10.27;;
9848;SDS011;4963;51.444;6.528;2023-02-08T06:16:27;16.67;;;9.33;;
9848;SDS011;4963;51.444;6.528;2023-02-08T06:18:53;15.53;;;10.03;;
9848;SDS011;4963;51.444;6.528;2023-02-08T06:21:20;17.77;;;10.07;;
9848;SDS011;4963;51.444;6.528;2023-02-08T06:23:48;15.70;;;10.70;;
9848;SDS011;4963;51.444;6.528;2023-02-08T06:26:15;16.03;;;10.43;;
9848;SDS011;4963;51.444;6.528;2023-02-08T06:28:42;16.37;;;10.13;;
9848;SDS011;4963;51.444;6.528;2023-02-08T06:31:08;17.60;;;10.57;;
9848;SDS011;4963;51.444;6.528;2023-02-08T06:33:35;19.00;;;11.10;;
9848;SDS011;4963;51.444;6.528;2023-02-08T06:36:02;16.20;;;10.80;;
9848;SDS011;4963;51.444;6.528;2023-02-08T06:38:29;18.20;;;11.77;;
9848;SDS011;4963;51.444;6.528;2023-02-08T06:40:57;17.13;;;12.03;;
9848;SDS011;4963;51.444;6.528;2023-02-08T06:43:24;17.83;;;11.00;;
9848;SDS011;4963;51.444;6.528;2023-02-08T06:45:51;16.33;;;10.23;;
9848;SDS011;4963;51.444;6.528;2023-02-08T06:48:17;15.90;;;11.67;;
9848;SDS011;4963;51.444;6.528;2023-02-08T06:50:44;15.13;;;10.57;;
9848;SDS011;4963;51.444;6.528;2023-02-08T06:53:11;19.03;;;12.03;;
9848;SDS011;4963;51.444;6.528;2023-02-08T06:55:38;21.07;;;11.33;;
9848;SDS011;4963;51.444;6.528;2023-02-08T06:58:07;19.53;;;11.97;;
9848;SDS011;4963;51.444;6.528;2023-02-08T07:00:33;20.77;;;11.60;;
9848;SDS011;4963;51.444;6.528;2023-02-08T07:03:03;18.07;;;11.00;;
9848;SDS011;4963;51.444;6.528;2023-02-08T07:05:29;18.30;;;11.60;;
9848;SDS011;4963;51.444;6.528;2023-02-08T07:07:59;16.73;;;11.70;;
9848;SDS011;4963;51.444;6.528;2023-02-08T07:10:26;16.53;;;11.37;;
9848;SDS011;4963;51.444;6.528;2023-02-08T07:12:53;21.43;;;12.57;;
9848;SDS011;4963;51.444;6.528;2023-02-08T07:15:21;24.30;;;12.87;;
9848;SDS011;4963;51.444;6.528;2023-02-08T07:17:47;19.37;;;12.83;;
9848;SDS011;4963;51.444;6.528;2023-02-08T07:20:14;18.17;;;12.37;;
9848;SDS011;4963;51.444;6.528;2023-02-08T07:22:41;20.10;;;13.00;;
9848;SDS011;4963;51.444;6.528;2023-02-08T07:25:08;19.40;;;12.07;;
9848;SDS011;4963;51.444;6.528;2023-02-08T07:27:35;18.60;;;11.97;;
9848;SDS011;4963;51.444;6.528;2023-02-08T07:30:02;22.77;;;12.87;;
9848;SDS011;4963;51.444;6.528;2023-02-08T07:32:31;19.70;;;12.43;;
9848;SDS011;4963;51.444;6.528;2023-02-08T07:34:57;20.70;;;13.30;;
9848;SDS011;4963;51.444;6.528;2023-02-08T07:37:24;20.27;;;13.20;;
9848;SDS011;4963;51.444;6.528;2023-02-08T07:39:52;15.37;;;11.63;;
9848;SDS011;4963;51.444;6.528;2023-02-08T07:42:19;20.90;;;11.90;;
9848;SDS011;4963;51.444;6.528;2023-02-08T07:44:46;18.10;;;12.50;;
9848;SDS011;4963;51.444;6.528;2023-02-08T07:47:13;19.90;;;12.87;;
9848;SDS011;4963;51.444;6.528;2023-02-08T07:49:42;17.70;;;12.73;;
9848;SDS011;4963;51.444;6.528;2023-02-08T07:52:09;19.23;;;12.90;;
9848;SDS011;4963;51.444;6.528;2023-02-08T07:54:36;22.67;;;13.63;;
9848;SDS011;4963;51.444;6.528;2023-02-08T07:57:03;20.13;;;13.30;;
9848;SDS011;4963;51.444;6.528;2023-02-08T07:59:30;18.93;;;12.60;;
9848;SDS011;4963;51.444;6.528;2023-02-08T08:01:57;26.53;;;14.03;;
9848;SDS011;4963;51.444;6.528;2023-02-08T08:04:24;20.03;;;12.40;;
9848;SDS011;4963;51.444;6.528;2023-02-08T08:06:52;16.43;;;11.40;;
9848;SDS011;4963;51.444;6.528;2023-02-08T08:09:19;20.90;;;12.77;;
9848;SDS011;4963;51.444;6.528;2023-02-08T08:11:48;17.20;;;12.13;;
9848;SDS011;4963;51.444;6.528;2023-02-08T08:14:15;15.73;;;10.83;;
9848;SDS011;4963;51.444;6.528;2023-02-08T08:16:41;17.57;;;11.70;;
9848;SDS011;4963;51.444;6.528;2023-02-08T08:19:08;15.03;;;10.80;;
9848;SDS011;4963;51.444;6.528;2023-02-08T08:21:35;17.57;;;11.60;;
9848;SDS011;4963;51.444;6.528;2023-02-08T08:24:03;20.47;;;11.07;;
9848;SDS011;4963;51.444;6.528;2023-02-08T08:26:30;18.73;;;10.20;;
9848;SDS011;4963;51.444;6.528;2023-02-08T08:28:57;19.53;;;11.33;;
9848;SDS011;4963;51.444;6.528;2023-02-08T08:31:24;23.47;;;11.40;;
9848;SDS011;4963;51.444;6.528;2023-02-08T08:33:50;19.63;;;10.10;;
9848;SDS011;4963;51.444;6.528;2023-02-08T08:36:17;14.10;;;10.17;;
9848;SDS011;4963;51.444;6.528;2023-02-08T08:38:44;15.03;;;8.90;;
9848;SDS011;4963;51.444;6.528;2023-02-08T08:41:13;13.80;;;9.60;;
9848;SDS011;4963;51.444;6.528;2023-02-08T08:43:42;13.97;;;9.50;;
9848;SDS011;4963;51.444;6.528;2023-02-08T08:46:09;14.10;;;9.93;;
9848;SDS011;4963;51.444;6.528;2023-02-08T08:48:36;17.37;;;9.67;;
9848;SDS011;4963;51.444;6.528;2023-02-08T08:51:03;16.77;;;11.30;;
9848;SDS011;4963;51.444;6.528;2023-02-08T08:53:31;15.60;;;9.47;;
9848;SDS011;4963;51.444;6.528;2023-02-08T08:55:57;13.93;;;9.00;;
9848;SDS011;4963;51.444;6.528;2023-02-08T08:58:25;14.23;;;8.13;;
9848;SDS011;4963;51.444;6.528;2023-02-08T09:00:53;15.37;;;8.50;;
9848;SDS011;4963;51.444;6.528;2023-02-08T09:03:21;16.67;;;8.33;;
9848;SDS011;4963;51.444;6.528;2023-02-08T09:05:48;13.00;;;8.03;;
9848;SDS011;4963;51.444;6.528;2023-02-08T09:08:14;10.63;;;7.43;;
9848;SDS011;4963;51.444;6.528;2023-02-08T09:10:41;13.33;;;8.27;;
9848;SDS011;4963;51.444;6.528;2023-02-08T09:13:08;10.20;;;6.97;;
9848;SDS011;4963;51.444;6.528;2023-02-08T09:15:38;12.40;;;7.27;;
9848;SDS011;4963;51.444;6.528;2023-02-08T09:18:05;11.67;;;7.47;;
9848;SDS011;4963;51.444;6.528;2023-02-08T09:20:32;11.30;;;7.40;;
9848;SDS011;4963;51.444;6.528;2023-02-08T09:23:02;13.30;;;7.23;;
9848;SDS011;4963;51.444;6.528;2023-02-08T09:25:29;13.33;;;7.60;;
9848;SDS011;4963;51.444;6.528;2023-02-08T09:27:57;10.60;;;6.63;;
9848;SDS011;4963;51.444;6.528;2023-02-08T09:30:24;10.60;;;6.60;;
9848;SDS011;4963;51.444;6.528;2023-02-08T09:32:52;14.43;;;7.30;;
9848;SDS011;4963;51.444;6.528;2023-02-08T09:35:19;11.20;;;7.33;;
9848;SDS011;4963;51.444;6.528;2023-02-08T09:37:45;12.77;;;7.03;;
9848;SDS011;4963;51.444;6.528;2023-02-08T09:40:15;9.23;;;6.70;;
9848;SDS011;4963;51.444;6.528;2023-02-08T09:42:48;11.50;;;7.40;;
9848;SDS011;4963;51.444;6.528;2023-02-08T09:45:29;10.37;;;6.77;;
9848;SDS011;4963;51.444;6.528;2023-02-08T09:48:07;10.50;;;7.03;;
9848;SDS011;4963;51.444;6.528;2023-02-08T09:50:43;12.53;;;6.93;;
9848;SDS011;4963;51.444;6.528;2023-02-08T09:53:14;10.63;;;6.27;;
9848;SDS011;4963;51.444;6.528;2023-02-08T09:55:45;9.50;;;6.30;;
9848;SDS011;4963;51.444;6.528;2023-02-08T09:58:18;11.13;;;6.87;;
9848;SDS011;4963;51.444;6.528;2023-02-08T10:00:48;10.80;;;6.33;;
9848;SDS011;4963;51.444;6.528;2023-02-08T10:06:08;10.13;;;6.30;;
9848;SDS011;4963;51.444;6.528;2023-02-08T10:08:38;12.03;;;6.60;;
9848;SDS011;4963;51.444;6.528;2023-02-08T10:11:10;10.27;;;6.37;;
9848;SDS011;4963;51.444;6.528;2023-02-08T10:14:13;9.00;;;5.70;;
9848;SDS011;4963;51.444;6.528;2023-02-08T10:17:05;9.13;;;5.30;;
9848;SDS011;4963;51.444;6.528;2023-02-08T10:19:48;9.07;;;6.27;;
9848;SDS011;4963;51.444;6.528;2023-02-08T10:22:27;10.27;;;6.73;;
9848;SDS011;4963;51.444;6.528;2023-02-08T10:25:14;9.27;;;5.33;;
9848;SDS011;4963;51.444;6.528;2023-02-08T10:27:57;10.23;;;6.13;;
9848;SDS011;4963;51.444;6.528;2023-02-08T10:30:34;10.83;;;5.63;;
9848;SDS011;4963;51.444;6.528;2023-02-08T10:33:09;9.47;;;6.10;;
9848;SDS011;4963;51.444;6.528;2023-02-08T10:35:45;12.00;;;5.93;;
9848;SDS011;4963;51.444;6.528;2023-02-08T10:38:22;13.93;;;5.53;;
9848;SDS011;4963;51.444;6.528;2023-02-08T10:40:50;7.97;;;6.67;;
9848;SDS011;4963;51.444;6.528;2023-02-08T10:43:23;9.57;;;5.73;;
9848;SDS011;4963;51.444;6.528;2023-02-08T10:45:59;14.17;;;6.20;;
9848;SDS011;4963;51.444;6.528;2023-02-08T10:48:34;9.87;;;5.40;;
9848;SDS011;4963;51.444;6.528;2023-02-08T10:51:11;9.90;;;5.17;;
9848;SDS011;4963;51.444;6.528;2023-02-08T10:53:40;10.67;;;5.20;;
9848;SDS011;4963;51.444;6.528;2023-02-08T10:56:09;12.03;;;5.43;;
9848;SDS011;4963;51.444;6.528;2023-02-08T10:58:51;8.97;;;6.20;;
9848;SDS011;4963;51.444;6.528;2023-02-08T11:01:18;10.60;;;5.73;;
9848;SDS011;4963;51.444;6.528;2023-02-08T11:03:59;9.40;;;5.67;;
9848;SDS011;4963;51.444;6.528;2023-02-08T11:06:27;8.73;;;5.40;;
9848;SDS011;4963;51.444;6.528;2023-02-08T11:08:54;8.87;;;5.07;;
9848;SDS011;4963;51.444;6.528;2023-02-08T11:11:23;8.70;;;5.63;;
9848;SDS011;4963;51.444;6.528;2023-02-08T11:13:53;9.47;;;6.00;;
9848;SDS011;4963;51.444;6.528;2023-02-08T11:16:32;8.03;;;4.47;;
9848;SDS011;4963;51.444;6.528;2023-02-08T11:18:59;10.83;;;4.70;;
9848;SDS011;4963;51.444;6.528;2023-02-08T11:21:31;8.23;;;5.17;;
9848;SDS011;4963;51.444;6.528;2023-02-08T11:24:01;10.83;;;6.93;;
9848;SDS011;4963;51.444;6.528;2023-02-08T11:26:34;7.50;;;4.93;;
9848;SDS011;4963;51.444;6.528;2023-02-08T11:29:03;7.90;;;4.40;;
9848;SDS011;4963;51.444;6.528;2023-02-08T11:31:36;9.30;;;5.40;;
9848;SDS011;4963;51.444;6.528;2023-02-08T11:34:05;8.30;;;5.30;;
9848;SDS011;4963;51.444;6.528;2023-02-08T11:36:36;6.70;;;5.30;;
9848;SDS011;4963;51.444;6.528;2023-02-08T11:39:14;6.63;;;4.47;;
9848;SDS011;4963;51.444;6.528;2023-02-08T11:41:43;6.27;;;4.03;;
9848;SDS011;4963;51.444;6.528;2023-02-08T11:44:12;5.73;;;3.93;;
9848;SDS011;4963;51.444;6.528;2023-02-08T11:46:45;6.37;;;4.17;;
9848;SDS011;4963;51.444;6.528;2023-02-08T11:49:19;9.33;;;5.00;;
9848;SDS011;4963;51.444;6.528;2023-02-08T11:51:49;7.90;;;4.90;;
9848;SDS011;4963;51.444;6.528;2023-02-08T11:54:33;6.40;;;4.07;;
9848;SDS011;4963;51.444;6.528;2023-02-08T11:57:03;6.97;;;4.00;;
9848;SDS011;4963;51.444;6.528;2023-02-08T11:59:41;6.47;;;3.37;;
9848;SDS011;4963;51.444;6.528;2023-02-08T12:02:21;5.33;;;3.53;;
9848;SDS011;4963;51.444;6.528;2023-02-08T12:04:55;5.30;;;3.53;;
9848;SDS011;4963;51.444;6.528;2023-02-08T12:07:26;5.63;;;4.00;;
9848;SDS011;4963;51.444;6.528;2023-02-08T12:10:07;7.40;;;4.00;;
9848;SDS011;4963;51.444;6.528;2023-02-08T12:12:46;5.30;;;3.50;;
9848;SDS011;4963;51.444;6.528;2023-02-08T12:15:23;8.80;;;5.73;;
9848;SDS011;4963;51.444;6.528;2023-02-08T12:18:05;8.27;;;4.67;;
9848;SDS011;4963;51.444;6.528;2023-02-08T12:20:44;6.47;;;4.57;;
9848;SDS011;4963;51.444;6.528;2023-02-08T12:23:18;6.37;;;4.00;;
9848;SDS011;4963;51.444;6.528;2023-02-08T12:26:00;5.30;;;3.13;;
9848;SDS011;4963;51.444;6.528;2023-02-08T12:28:41;5.27;;;3.73;;
9848;SDS011;4963;51.444;6.528;2023-02-08T12:31:21;6.43;;;4.23;;
9848;SDS011;4963;51.444;6.528;2023-02-08T12:34:00;8.93;;;6.10;;
9848;SDS011;4963;51.444;6.528;2023-02-08T12:36:38;8.17;;;4.90;;
9848;SDS011;4963;51.444;6.528;2023-02-08T12:39:39;5.43;;;3.53;;
9848;SDS011;4963;51.444;6.528;2023-02-08T12:42:33;5.23;;;3.47;;
9848;SDS011;4963;51.444;6.528;2023-02-08T12:48:09;7.97;;;5.03;;
9848;SDS011;4963;51.444;6.528;2023-02-08T12:50:48;5.83;;;3.40;;
9848;SDS011;4963;51.444;6.528;2023-02-08T12:53:19;5.37;;;3.27;;
9848;SDS011;4963;51.444;6.528;2023-02-08T12:55:51;7.57;;;3.40;;
9848;SDS011;4963;51.444;6.528;2023-02-08T12:58:23;5.57;;;2.80;;
9848;SDS011;4963;51.444;6.528;2023-02-08T13:00:53;5.60;;;3.70;;
9848;SDS011;4963;51.444;6.528;2023-02-08T13:03:28;6.10;;;3.27;;
9848;SDS011;4963;51.444;6.528;2023-02-08T13:06:01;6.97;;;3.30;;
9848;SDS011;4963;51.444;6.528;2023-02-08T13:08:32;5.63;;;2.90;;
9848;SDS011;4963;51.444;6.528;2023-02-08T13:11:10;5.57;;;3.40;;
9848;SDS011;4963;51.444;6.528;2023-02-08T13:13:43;5.13;;;3.23;;
9848;SDS011;4963;51.444;6.528;2023-02-08T13:16:19;5.67;;;3.33;;
9848;SDS011;4963;51.444;6.528;2023-02-08T13:18:50;4.93;;;3.17;;
9848;SDS011;4963;51.444;6.528;2023-02-08T13:21:21;4.47;;;2.90;;
9848;SDS011;4963;51.444;6.528;2023-02-08T13:23:50;7.57;;;3.57;;
9848;SDS011;4963;51.444;6.528;2023-02-08T13:26:20;4.97;;;3.63;;
9848;SDS011;4963;51.444;6.528;2023-02-08T13:28:51;4.57;;;3.07;;
9848;SDS011;4963;51.444;6.528;2023-02-08T13:31:20;4.97;;;3.00;;
9848;SDS011;4963;51.444;6.528;2023-02-08T13:33:50;3.97;;;2.60;;
9848;SDS011;4963;51.444;6.528;2023-02-08T13:36:22;9.87;;;3.30;;
9848;SDS011;4963;51.444;6.528;2023-02-08T13:38:51;3.57;;;2.67;;
9848;SDS011;4963;51.444;6.528;2023-02-08T13:41:20;4.27;;;3.07;;
9848;SDS011;4963;51.444;6.528;2023-02-08T13:43:50;5.77;;;2.93;;
9848;SDS011;4963;51.444;6.528;2023-02-08T13:46:19;4.27;;;3.03;;
9848;SDS011;4963;51.444;6.528;2023-02-08T13:48:48;5.13;;;3.40;;
9848;SDS011;4963;51.444;6.528;2023-02-08T13:54:18;6.33;;;3.57;;
9848;SDS011;4963;51.444;6.528;2023-02-08T13:56:47;7.13;;;3.57;;
9848;SDS011;4963;51.444;6.528;2023-02-08T13:59:31;7.47;;;3.27;;
9848;SDS011;4963;51.444;6.528;2023-02-08T14:04:51;5.77;;;3.10;;
9848;SDS011;4963;51.444;6.528;2023-02-08T14:07:26;4.90;;;3.47;;
9848;SDS011;4963;51.444;6.528;2023-02-08T14:10:08;5.50;;;2.73;;
9848;SDS011;4963;51.444;6.528;2023-02-08T14:12:55;6.03;;;3.93;;
9848;SDS011;4963;51.444;6.528;2023-02-08T14:15:26;5.90;;;3.53;;
9848;SDS011;4963;51.444;6.528;2023-02-08T14:17:56;4.90;;;3.53;;
9848;SDS011;4963;51.444;6.528;2023-02-08T14:20:25;6.73;;;4.50;;
9848;SDS011;4963;51.444;6.528;2023-02-08T14:22:56;9.87;;;4.07;;
9848;SDS011;4963;51.444;6.528;2023-02-08T14:25:26;6.30;;;3.73;;
9848;SDS011;4963;51.444;6.528;2023-02-08T14:28:04;4.93;;;3.57;;
9848;SDS011;4963;51.444;6.528;2023-02-08T14:30:33;6.07;;;3.47;;
9848;SDS011;4963;51.444;6.528;2023-02-08T14:33:09;7.33;;;3.87;;
9848;SDS011;4963;51.444;6.528;2023-02-08T14:35:41;7.23;;;4.07;;
9848;SDS011;4963;51.444;6.528;2023-02-08T14:41:47;5.63;;;4.27;;
9848;SDS011;4963;51.444;6.528;2023-02-08T14:50:20;7.80;;;3.50;;
9848;SDS011;4963;51.444;6.528;2023-02-08T14:52:53;6.00;;;3.77;;
9848;SDS011;4963;51.444;6.528;2023-02-08T14:55:24;6.53;;;3.47;;
9848;SDS011;4963;51.444;6.528;2023-02-08T14:57:55;6.83;;;3.87;;
9848;SDS011;4963;51.444;6.528;2023-02-08T15:00:25;7.13;;;3.83;;
9848;SDS011;4963;51.444;6.528;2023-02-08T15:02:56;8.80;;;4.23;;
9848;SDS011;4963;51.444;6.528;2023-02-08T15:05:25;8.60;;;4.77;;
9848;SDS011;4963;51.444;6.528;2023-02-08T15:07:54;6.60;;;4.13;;
9848;SDS011;4963;51.444;6.528;2023-02-08T15:10:22;5.93;;;3.70;;
9848;SDS011;4963;51.444;6.528;2023-02-08T15:12:51;7.77;;;4.10;;
9848;SDS011;4963;51.444;6.528;2023-02-08T15:15:22;12.47;;;6.17;;
9848;SDS011;4963;51.444;6.528;2023-02-08T15:17:51;6.57;;;4.13;;
9848;SDS011;4963;51.444;6.528;2023-02-08T15:20:22;5.37;;;4.70;;
9848;SDS011;4963;51.444;6.528;2023-02-08T15:22:56;7.23;;;4.13;;
9848;SDS011;4963;51.444;6.528;2023-02-08T15:25:25;5.67;;;3.37;;
9848;SDS011;4963;51.444;6.528;2023-02-08T15:27:55;7.57;;;4.87;;
9848;SDS011;4963;51.444;6.528;2023-02-08T15:30:27;6.77;;;4.53;;
9848;SDS011;4963;51.444;6.528;2023-02-08T15:32:56;7.13;;;4.80;;
9848;SDS011;4963;51.444;6.528;2023-02-08T15:35:26;7.30;;;5.20;;
9848;SDS011;4963;51.444;6.528;2023-02-08T15:37:56;8.10;;;4.50;;
9848;SDS011;4963;51.444;6.528;2023-02-08T15:40:24;8.23;;;5.00;;
9848;SDS011;4963;51.444;6.528;2023-02-08T15:42:52;6.30;;;3.83;;
9848;SDS011;4963;51.444;6.528;2023-02-08T15:45:20;8.53;;;4.03;;
9848;SDS011;4963;51.444;6.528;2023-02-08T15:47:48;8.90;;;5.13;;
9848;SDS011;4963;51.444;6.528;2023-02-08T15:50:16;8.37;;;6.20;;